Glen Oaks, New York
Current Conditions -  °F | °C
As of 5:51 PM on Wednesday 22 Oct 2014 (Local Time) from KJFK Reporting Station
Light Rain Light Rain  
Wind Chill: 12°   Ceiling: 1600
Heat Index: 12°   Visibility: 9mi
Dew Point:   Wind: 18mph
Humidity: 83%   Direction: 350°N
Pressure: 29.81"   Gusts: NA
Location:  40.75°N, 73.71°W
Report Text: KJFK 222151Z 35016KT 9SM -RA BKN016 BKN024 OVC029 12/09 A2981 RMK AO2 PK WND 36026/2111 SLP094 BKN016 V SCT P0002 T01220094
Loading
Personal Weather Stations






























Interactive Weather Map
Tropical Storm Tracking
New forecast layout! Learn more

10-Day Weather Forecast

Advertisements
Track Severe Weather on mobile